Time;durP1;ratioP1;P1;durP2;ratioP2;P2;SDS_P1;SDS_P2;PMS_P1;PMS_P2;Temp;Humidity;BMP_temperature;BMP_pressure;BME280_temperature;BME280_humidity;BME280_pressure;Samples;Min_cycle;Max_cycle;Signal;HPM_P1;HPM_P2
2023/06/25 00:00:35;;;;;;;14.55;13.05;;;23.10;99.90;;;;;;4860671;29;20038;-83
2023/06/25 00:03:01;;;;;;;16.25;13.35;;;23.20;99.90;;;;;;4859575;29;20166;-82
2023/06/25 00:05:26;;;;;;;17.13;14.10;;;23.10;99.90;;;;;;4843905;29;20036;-83
2023/06/25 00:07:52;;;;;;;15.13;13.48;;;23.10;99.90;;;;;;4860443;29;20038;-83
2023/06/25 00:10:18;;;;;;;14.55;12.93;;;23.10;99.90;;;;;;4859899;29;20534;-83
2023/06/25 00:12:44;;;;;;;14.27;12.85;;;23.00;99.90;;;;;;4860442;29;20040;-83
2023/06/25 00:15:11;;;;;;;13.90;12.50;;;22.90;99.90;;;;;;4860341;29;20037;-83
2023/06/25 00:17:36;;;;;;;15.77;12.50;;;23.10;99.90;;;;;;4859585;29;20043;-83
2023/06/25 00:20:02;;;;;;;15.35;13.75;;;23.00;99.90;;;;;;4860068;29;20068;-83
2023/06/25 00:22:28;;;;;;;14.15;12.65;;;23.00;99.90;;;;;;4860473;29;20028;-83
2023/06/25 00:24:54;;;;;;;14.73;13.18;;;23.00;99.90;;;;;;4859133;29;20533;-82
2023/06/25 00:27:19;;;;;;;13.95;12.57;;;22.90;99.90;;;;;;4860677;29;20034;-82
2023/06/25 00:29:45;;;;;;;14.88;12.27;;;23.00;99.90;;;;;;4860104;29;20092;-82
2023/06/25 00:32:17;;;;;;;15.55;14.00;;;22.90;99.90;;;;;;4860007;29;20025;-83
2023/06/25 00:34:43;;;;;;;15.90;13.82;;;22.90;99.90;;;;;;4860404;29;20037;-83
2023/06/25 00:37:19;;;;;;;19.13;14.32;;;22.90;99.90;;;;;;4859805;29;20026;-83
2023/06/25 00:39:47;;;;;;;14.25;12.85;;;22.90;99.90;;;;;;4859499;29;20065;-83
2023/06/25 00:42:14;;;;;;;19.38;13.30;;;22.90;99.90;;;;;;4860121;29;20041;-83
2023/06/25 00:44:42;;;;;;;15.02;13.38;;;22.80;99.90;;;;;;4859994;29;20037;-84
2023/06/25 00:47:08;;;;;;;16.77;13.65;;;22.90;99.90;;;;;;4859108;29;20036;-84
2023/06/25 00:49:34;;;;;;;17.23;13.63;;;23.00;99.90;;;;;;4860253;29;20037;-83
2023/06/25 00:52:00;;;;;;;15.27;13.80;;;22.90;99.90;;;;;;4859554;29;20034;-83
2023/06/25 00:54:26;;;;;;;15.05;13.65;;;22.80;99.90;;;;;;4859491;29;20033;-83
2023/06/25 00:56:52;;;;;;;15.10;13.65;;;22.90;99.90;;;;;;4859633;29;20026;-83
2023/06/25 00:59:17;;;;;;;15.00;13.55;;;22.90;99.90;;;;;;4859171;29;20045;-83
2023/06/25 01:01:52;;;;;;;15.93;14.20;;;22.90;99.90;;;;;;4859786;29;20620;-83
2023/06/25 01:04:25;;;;;;;16.83;14.15;;;22.90;99.90;;;;;;4860095;29;20038;-83
2023/06/25 01:06:55;;;;;;;16.60;14.70;;;22.80;99.90;;;;;;4859048;29;20428;-82
2023/06/25 01:09:22;;;;;;;16.08;14.48;;;22.90;99.90;;;;;;4863292;29;20038;-82
2023/06/25 01:11:58;;;;;;;16.52;14.63;;;22.70;99.90;;;;;;4863236;29;20113;-82
2023/06/25 01:14:27;;;;;;;16.58;14.80;;;23.00;99.90;;;;;;4862980;29;20029;-82
2023/06/25 01:16:54;;;;;;;15.23;13.63;;;22.80;99.90;;;;;;4863260;29;20496;-82
2023/06/25 01:19:19;;;;;;;15.93;14.23;;;22.90;99.90;;;;;;4863537;29;20049;-82
2023/06/25 01:21:46;;;;;;;15.98;14.27;;;22.90;99.90;;;;;;4862521;29;20097;-82
2023/06/25 01:24:12;;;;;;;16.63;14.60;;;22.80;99.90;;;;;;4863323;29;20498;-83
2023/06/25 01:26:38;;;;;;;17.35;15.48;;;22.90;99.90;;;;;;4863135;29;20094;-83
2023/06/25 01:29:03;;;;;;;16.45;14.73;;;22.80;99.90;;;;;;4862544;29;20026;-82
2023/06/25 01:31:30;;;;;;;14.43;13.02;;;22.80;99.90;;;;;;4863450;29;20030;-83
2023/06/25 01:33:57;;;;;;;16.75;14.02;;;22.80;99.90;;;;;;4862948;29;20033;-82
2023/06/25 01:36:22;;;;;;;15.82;14.30;;;22.80;99.90;;;;;;4862742;29;20025;-83
2023/06/25 01:38:48;;;;;;;15.65;14.15;;;22.80;99.90;;;;;;4862407;29;20040;-83
2023/06/25 01:41:14;;;;;;;15.25;12.80;;;22.80;99.90;;;;;;4863243;29;20481;-82
2023/06/25 01:43:39;;;;;;;22.00;14.25;;;22.70;99.90;;;;;;4862356;29;20032;-83
2023/06/25 01:46:05;;;;;;;15.68;14.07;;;22.70;99.90;;;;;;4862914;29;20044;-83
2023/06/25 01:48:31;;;;;;;16.70;15.00;;;22.70;99.90;;;;;;4862324;29;20022;-83
2023/06/25 01:50:56;;;;;;;16.75;14.70;;;22.70;99.90;;;;;;4862733;29;20033;-83
2023/06/25 01:53:22;;;;;;;16.30;14.07;;;22.60;99.90;;;;;;4862799;29;20470;-83
2023/06/25 01:55:48;;;;;;;17.77;13.93;;;22.60;99.90;;;;;;4862049;29;20109;-83
2023/06/25 01:58:13;;;;;;;16.10;13.90;;;22.60;99.90;;;;;;4862975;29;20032;-83
2023/06/25 02:00:40;;;;;;;17.35;13.13;;;22.60;99.90;;;;;;4862611;29;20147;-83
2023/06/25 02:03:06;;;;;;;15.18;13.63;;;23.10;99.90;;;;;;4861809;29;20037;-83
2023/06/25 02:05:31;;;;;;;15.02;13.52;;;22.60;99.90;;;;;;4862640;29;20402;-83
2023/06/25 02:07:57;;;;;;;15.35;13.68;;;22.50;99.90;;;;;;4862128;29;20030;-82
2023/06/25 02:10:23;;;;;;;16.05;14.45;;;22.40;99.90;;;;;;4861784;29;20512;-82
2023/06/25 02:12:48;;;;;;;16.10;13.68;;;22.40;99.90;;;;;;4862059;29;20032;-82
2023/06/25 02:15:14;;;;;;;16.27;13.63;;;22.40;99.90;;;;;;4862780;29;20547;-82
2023/06/25 02:17:39;;;;;;;16.33;14.48;;;22.50;99.90;;;;;;4861744;29;20104;-83
2023/06/25 02:20:06;;;;;;;15.40;13.85;;;22.40;99.90;;;;;;4861291;29;20042;-82
2023/06/25 02:22:32;;;;;;;14.90;13.40;;;22.40;99.90;;;;;;4862634;29;20032;-83
2023/06/25 02:24:57;;;;;;;15.82;13.30;;;22.40;99.90;;;;;;4861187;29;20049;-82
2023/06/25 02:27:23;;;;;;;15.48;13.88;;;22.40;99.90;;;;;;4862190;29;20364;-83
2023/06/25 02:29:48;;;;;;;14.35;12.93;;;22.40;99.90;;;;;;4861798;29;20072;-82
2023/06/25 02:32:14;;;;;;;15.00;13.15;;;22.50;99.90;;;;;;4861220;29;20542;-83
2023/06/25 02:34:40;;;;;;;14.23;12.82;;;22.50;99.90;;;;;;4862303;29;20112;-83
2023/06/25 02:37:15;;;;;;;22.20;12.68;;;22.50;99.90;;;;;;4861810;29;20417;-82
2023/06/25 02:39:41;;;;;;;15.00;12.93;;;22.50;99.90;;;;;;4861372;29;20082;-83
2023/06/25 02:42:07;;;;;;;14.23;12.90;;;22.50;99.90;;;;;;4861516;29;20420;-83
2023/06/25 02:44:32;;;;;;;14.75;12.18;;;22.50;99.90;;;;;;4862005;29;20033;-82
2023/06/25 02:46:58;;;;;;;15.38;13.70;;;22.60;99.90;;;;;;4860963;29;20113;-82
2023/06/25 02:49:24;;;;;;;17.30;12.75;;;22.50;99.90;;;;;;4861820;29;20033;-83
2023/06/25 02:51:49;;;;;;;17.13;13.85;;;22.50;99.90;;;;;;4860776;29;20029;-82
2023/06/25 02:54:15;;;;;;;18.52;13.18;;;22.40;99.90;;;;;;4861668;29;20037;-83
2023/06/25 02:56:40;;;;;;;13.45;12.00;;;22.50;99.90;;;;;;4861425;29;20053;-82
2023/06/25 02:59:06;;;;;;;17.17;13.70;;;22.50;99.90;;;;;;4860956;29;20076;-82
2023/06/25 03:01:31;;;;;;;14.75;13.27;;;22.60;99.90;;;;;;4861681;29;20036;-82
2023/06/25 03:03:57;;;;;;;17.02;14.10;;;22.40;99.90;;;;;;4861423;29;20059;-82
2023/06/25 03:06:23;;;;;;;18.92;13.93;;;22.40;99.90;;;;;;4861026;29;20049;-82
2023/06/25 03:08:48;;;;;;;15.13;13.20;;;22.40;99.90;;;;;;4861177;29;20087;-82
2023/06/25 03:11:14;;;;;;;16.40;13.82;;;22.50;99.90;;;;;;4861607;29;20112;-82
2023/06/25 03:13:40;;;;;;;14.90;13.48;;;22.40;99.90;;;;;;4861030;29;20034;-82
2023/06/25 03:16:05;;;;;;;16.08;14.25;;;22.30;99.90;;;;;;4861221;29;20036;-82
2023/06/25 03:18:31;;;;;;;17.83;14.57;;;22.30;99.90;;;;;;4861787;29;20471;-82
2023/06/25 03:20:56;;;;;;;16.52;13.32;;;22.20;99.90;;;;;;4860177;29;20483;-82
2023/06/25 03:23:22;;;;;;;19.42;14.20;;;22.20;99.90;;;;;;4861061;29;20029;-82
2023/06/25 03:25:47;;;;;;;20.10;13.82;;;22.10;99.90;;;;;;4861247;29;20170;-82
2023/06/25 03:28:13;;;;;;;17.27;13.82;;;22.10;99.90;;;;;;4860647;29;20048;-82
2023/06/25 03:30:38;;;;;;;19.17;13.82;;;22.10;99.90;;;;;;4861180;29;20089;-82
2023/06/25 03:33:04;;;;;;;17.95;13.75;;;22.10;99.90;;;;;;4860845;29;20037;-82
2023/06/25 03:35:30;;;;;;;18.17;14.15;;;22.10;99.90;;;;;;4860420;29;20480;-82
2023/06/25 03:37:55;;;;;;;16.92;14.38;;;22.10;99.90;;;;;;4860716;29;20098;-82
2023/06/25 03:40:21;;;;;;;15.13;13.48;;;22.00;99.90;;;;;;4860999;29;20033;-82
2023/06/25 03:42:46;;;;;;;20.25;14.05;;;22.00;99.90;;;;;;4859924;29;20112;-82
2023/06/25 03:45:15;;;;;;;20.65;15.18;;;22.00;99.90;;;;;;4860806;29;20058;-82
2023/06/25 03:47:41;;;;;;;15.90;14.20;;;22.00;99.90;;;;;;4860966;29;20030;-82
2023/06/25 03:50:07;;;;;;;17.77;14.40;;;22.00;99.90;;;;;;4860321;29;20126;-82
2023/06/25 03:52:32;;;;;;;20.45;14.95;;;22.00;99.90;;;;;;4860716;29;20481;-81
2023/06/25 03:54:58;;;;;;;20.27;15.68;;;22.00;99.90;;;;;;4860310;29;20103;-82
2023/06/25 03:57:23;;;;;;;19.88;14.88;;;22.00;99.90;;;;;;4860397;29;20026;-82
2023/06/25 03:59:49;;;;;;;16.55;14.05;;;22.00;99.90;;;;;;4860377;29;20499;-82
2023/06/25 04:02:15;;;;;;;18.63;14.60;;;22.00;99.90;;;;;;4859887;29;20034;-82
2023/06/25 04:04:40;;;;;;;17.58;15.25;;;22.00;99.90;;;;;;4860842;29;20058;-82
2023/06/25 04:07:06;;;;;;;17.48;14.13;;;22.00;99.90;;;;;;4860294;29;20443;-82
2023/06/25 04:09:31;;;;;;;18.60;14.45;;;21.90;99.90;;;;;;4859707;29;20033;-82
2023/06/25 04:11:57;;;;;;;21.17;14.95;;;21.90;99.90;;;;;;4860375;29;20077;-82
2023/06/25 04:14:22;;;;;;;21.27;15.18;;;21.90;99.90;;;;;;4860541;29;20036;-82
2023/06/25 04:16:48;;;;;;;19.65;15.38;;;21.90;99.90;;;;;;4859520;29;20098;-82
2023/06/25 04:19:14;;;;;;;20.05;15.55;;;21.80;99.90;;;;;;4860325;29;20041;-82
2023/06/25 04:21:39;;;;;;;18.55;14.90;;;21.90;99.90;;;;;;4860284;29;20069;-82
2023/06/25 04:24:05;;;;;;;16.38;14.35;;;21.90;99.90;;;;;;4859113;29;20057;-82
2023/06/25 04:26:31;;;;;;;20.75;15.02;;;21.90;99.90;;;;;;4860537;29;20037;-82
2023/06/25 04:28:56;;;;;;;18.50;14.80;;;22.70;99.90;;;;;;4859973;29;20467;-82
2023/06/25 04:31:23;;;;;;;19.52;15.98;;;21.80;99.90;;;;;;4859398;29;20494;-83
2023/06/25 04:33:49;;;;;;;22.25;15.50;;;22.00;99.90;;;;;;4860038;29;20463;-82
2023/06/25 04:36:15;;;;;;;23.05;15.35;;;21.80;99.90;;;;;;4860621;29;20146;-82
2023/06/25 04:38:41;;;;;;;20.58;14.80;;;21.80;99.90;;;;;;4859629;29;20121;-82
2023/06/25 04:41:06;;;;;;;16.17;14.48;;;22.10;99.90;;;;;;4860019;29;20170;-82
2023/06/25 04:43:32;;;;;;;16.42;14.73;;;21.90;99.90;;;;;;4859704;29;20110;-82
2023/06/25 04:45:57;;;;;;;18.85;15.60;;;21.90;99.90;;;;;;4859238;29;20033;-83
2023/06/25 04:48:23;;;;;;;16.85;14.77;;;22.70;99.90;;;;;;4859867;29;20510;-82
2023/06/25 04:50:48;;;;;;;17.52;14.63;;;22.00;99.90;;;;;;4859530;29;20034;-82
2023/06/25 04:53:14;;;;;;;18.45;14.68;;;22.00;99.90;;;;;;4859460;29;20068;-82
2023/06/25 04:55:39;;;;;;;16.75;13.60;;;22.00;99.90;;;;;;4860197;29;20033;-82
2023/06/25 04:58:05;;;;;;;21.48;14.27;;;22.10;99.90;;;;;;4859750;29;20029;-83
2023/06/25 05:00:31;;;;;;;17.30;14.38;;;22.20;99.90;;;;;;4859158;29;20048;-83
2023/06/25 05:02:56;;;;;;;18.45;14.95;;;22.10;99.90;;;;;;4859359;29;20455;-82
2023/06/25 05:05:22;;;;;;;16.42;13.98;;;22.10;99.90;;;;;;4859294;29;20037;-83
2023/06/25 05:07:47;;;;;;;18.52;15.18;;;22.10;99.90;;;;;;4859811;29;20052;-82
2023/06/25 05:10:15;;;;;;;18.63;14.38;;;22.10;99.90;;;;;;4859863;29;20089;-82
2023/06/25 05:12:41;;;;;;;24.42;15.38;;;22.10;99.90;;;;;;4859334;29;20038;-82
2023/06/25 05:15:07;;;;;;;15.93;14.00;;;22.10;99.90;;;;;;4859791;29;20037;-83
2023/06/25 05:17:32;;;;;;;18.73;14.13;;;22.20;99.90;;;;;;4859847;29;20117;-83
2023/06/25 05:19:58;;;;;;;16.48;14.68;;;22.20;99.90;;;;;;4858919;29;20044;-83
2023/06/25 05:22:23;;;;;;;17.63;15.00;;;22.20;99.90;;;;;;4859863;29;20037;-83
2023/06/25 05:24:49;;;;;;;15.45;13.65;;;22.40;99.90;;;;;;4859234;29;20069;-82
2023/06/25 05:27:14;;;;;;;17.25;13.18;;;22.30;99.90;;;;;;4859238;29;20034;-83
2023/06/25 05:29:40;;;;;;;19.17;13.95;;;22.30;99.90;;;;;;4859568;29;20395;-83
2023/06/25 05:32:06;;;;;;;19.70;13.60;;;22.30;99.90;;;;;;4859249;29;20033;-83
2023/06/25 05:34:31;;;;;;;16.23;14.57;;;22.40;99.90;;;;;;4858618;29;20061;-83
2023/06/25 05:36:57;;;;;;;17.55;14.20;;;22.30;99.90;;;;;;4859658;29;20097;-83
2023/06/25 05:39:28;;;;;;;16.40;12.77;;;22.40;99.90;;;;;;4859619;29;20555;-83
2023/06/25 05:42:00;;;;;;;16.85;13.30;;;22.40;99.90;;;;;;4858693;29;20490;-83
2023/06/25 05:44:26;;;;;;;16.92;12.25;;;22.40;99.90;;;;;;4859804;29;20038;-83
2023/06/25 05:46:52;;;;;;;17.52;14.07;;;22.40;99.90;;;;;;4859763;29;20029;-83
2023/06/25 05:49:17;;;;;;;16.50;13.60;;;22.40;99.90;;;;;;4859089;29;20044;-83
2023/06/25 05:51:43;;;;;;;19.33;14.40;;;22.50;99.90;;;;;;4859504;29;20044;-83
2023/06/25 05:54:09;;;;;;;18.23;13.50;;;22.70;99.90;;;;;;4859437;29;20041;-83
2023/06/25 05:56:34;;;;;;;14.95;13.45;;;22.50;99.90;;;;;;4862067;29;20030;-83
2023/06/25 05:59:00;;;;;;;18.58;15.02;;;22.60;99.90;;;;;;4862429;29;20029;-83
2023/06/25 06:01:26;;;;;;;15.68;13.98;;;22.40;99.90;;;;;;4862764;29;20134;-83
2023/06/25 06:03:52;;;;;;;15.45;13.75;;;22.60;99.90;;;;;;4861774;29;20028;-83
2023/06/25 06:06:18;;;;;;;17.15;13.80;;;22.60;99.90;;;;;;4862885;29;20029;-84
2023/06/25 06:08:44;;;;;;;15.35;13.73;;;22.60;99.90;;;;;;4861922;29;20387;-83
2023/06/25 06:11:10;;;;;;;16.27;14.18;;;22.60;99.90;;;;;;4862614;29;20036;-83
2023/06/25 06:13:36;;;;;;;17.30;14.77;;;22.70;99.90;;;;;;4862463;29;20124;-83
2023/06/25 06:16:02;;;;;;;25.02;14.63;;;22.70;99.90;;;;;;4861571;29;20403;-83
2023/06/25 06:18:28;;;;;;;18.73;15.05;;;22.70;99.90;;;;;;4862529;29;20033;-83
2023/06/25 06:20:53;;;;;;;16.25;13.75;;;22.70;99.90;;;;;;4862175;29;20034;-83
2023/06/25 06:23:19;;;;;;;18.95;14.27;;;22.80;99.90;;;;;;4861729;29;20452;-83
2023/06/25 06:25:44;;;;;;;15.55;12.75;;;22.80;99.90;;;;;;4862149;29;20038;-83
2023/06/25 06:28:10;;;;;;;16.67;13.02;;;22.80;99.90;;;;;;4862291;29;20487;-83
2023/06/25 06:30:36;;;;;;;16.80;13.88;;;22.80;99.90;;;;;;4861413;29;20034;-83
2023/06/25 06:33:01;;;;;;;21.88;14.35;;;22.90;99.90;;;;;;4862201;29;20201;-83
2023/06/25 06:35:27;;;;;;;15.25;13.63;;;22.90;99.90;;;;;;4862406;29;20466;-83
2023/06/25 06:37:52;;;;;;;15.32;13.75;;;22.90;99.90;;;;;;4861188;29;20038;-83
2023/06/25 06:40:18;;;;;;;16.27;13.43;;;23.00;99.90;;;;;;4862136;29;20125;-83
2023/06/25 06:42:43;;;;;;;16.20;13.43;;;23.00;99.90;;;;;;4861810;29;20036;-83
2023/06/25 06:45:09;;;;;;;18.13;15.02;;;23.10;99.90;;;;;;4860903;29;20033;-82
2023/06/25 06:47:35;;;;;;;16.80;13.57;;;23.00;99.90;;;;;;4861978;29;20543;-83
2023/06/25 06:50:01;;;;;;;15.00;13.43;;;23.00;99.90;;;;;;4861805;29;20021;-83
2023/06/25 06:52:26;;;;;;;15.02;13.52;;;23.10;99.90;;;;;;4861330;29;20034;-82
2023/06/25 06:54:52;;;;;;;15.32;13.35;;;23.10;99.90;;;;;;4861479;29;20029;-82
2023/06/25 06:57:18;;;;;;;16.80;13.13;;;23.20;99.90;;;;;;4861740;29;20048;-83
2023/06/25 06:59:47;;;;;;;17.58;12.73;;;23.10;99.90;;;;;;4860837;29;20041;-83
2023/06/25 07:02:12;;;;;;;16.77;12.93;;;22.90;99.90;;;;;;4861934;29;20090;-82
2023/06/25 07:04:39;;;;;;;15.93;13.32;;;23.10;99.90;;;;;;4861733;29;20424;-82
2023/06/25 07:07:05;;;;;;;17.60;13.52;;;23.10;99.90;;;;;;4860532;29;20248;-83
2023/06/25 07:09:31;;;;;;;13.27;11.88;;;23.20;99.90;;;;;;4861904;29;20065;-83
2023/06/25 07:11:56;;;;;;;15.95;13.20;;;23.10;99.90;;;;;;4860748;29;20498;-83
2023/06/25 07:14:22;;;;;;;15.77;12.82;;;23.10;99.90;;;;;;4861090;29;20033;-83
2023/06/25 07:16:47;;;;;;;16.63;12.98;;;23.20;99.90;;;;;;4861088;29;20116;-83
2023/06/25 07:19:13;;;;;;;17.08;13.27;;;23.20;99.90;;;;;;4860902;29;20046;-83
2023/06/25 07:21:39;;;;;;;14.20;11.32;;;23.20;99.90;;;;;;4861368;29;20101;-83
2023/06/25 07:24:05;;;;;;;18.38;13.65;;;23.20;99.90;;;;;;4860655;29;20395;-83
2023/06/25 07:26:30;;;;;;;17.65;14.40;;;23.20;99.90;;;;;;4860135;29;20056;-83
2023/06/25 07:28:56;;;;;;;16.17;13.43;;;23.20;99.90;;;;;;4860874;29;20124;-83
2023/06/25 07:31:22;;;;;;;15.73;12.68;;;23.20;99.90;;;;;;4861280;29;20093;-83
2023/06/25 07:33:47;;;;;;;17.02;14.32;;;23.30;99.90;;;;;;4860305;29;20033;-83
2023/06/25 07:36:13;;;;;;;13.82;11.52;;;23.30;99.90;;;;;;4861245;29;20030;-83
2023/06/25 07:38:38;;;;;;;13.93;11.18;;;23.40;99.90;;;;;;4860953;29;20382;-84
2023/06/25 07:41:04;;;;;;;17.05;13.43;;;23.30;99.90;;;;;;4860296;29;20041;-84
2023/06/25 07:43:30;;;;;;;14.63;12.57;;;23.30;99.90;;;;;;4860890;29;20033;-82
2023/06/25 07:45:55;;;;;;;15.75;12.38;;;23.30;99.90;;;;;;4860946;29;20026;-84
2023/06/25 07:48:21;;;;;;;16.58;12.05;;;23.40;99.90;;;;;;4859894;29;20441;-84
2023/06/25 07:50:46;;;;;;;13.18;11.23;;;23.40;99.90;;;;;;4860651;29;20030;-82
2023/06/25 07:53:12;;;;;;;14.40;12.90;;;23.40;99.90;;;;;;4860877;29;20033;-84
2023/06/25 07:55:41;;;;;;;14.65;12.30;;;23.30;99.90;;;;;;4859990;29;20021;-84
2023/06/25 07:58:08;;;;;;;15.57;12.80;;;23.50;99.90;;;;;;4860320;29;20030;-84
2023/06/25 08:00:34;;;;;;;14.50;13.10;;;23.40;99.90;;;;;;4860752;29;20302;-84
2023/06/25 08:03:00;;;;;;;17.15;13.32;;;23.60;99.90;;;;;;4859846;29;20034;-84
2023/06/25 08:05:25;;;;;;;15.15;13.57;;;23.50;99.90;;;;;;4860491;29;20086;-83
2023/06/25 08:07:51;;;;;;;15.82;13.13;;;23.70;99.90;;;;;;4860295;29;20026;-83
2023/06/25 08:10:17;;;;;;;13.38;11.80;;;23.70;99.90;;;;;;4843352;29;20559;-83
2023/06/25 08:12:42;;;;;;;14.48;12.15;;;23.70;99.90;;;;;;4860343;29;20566;-84
2023/06/25 08:15:08;;;;;;;16.63;12.80;;;23.70;99.90;;;;;;4860439;29;20082;-84
2023/06/25 08:17:34;;;;;;;13.80;10.90;;;23.70;99.90;;;;;;4858931;29;20029;-83
2023/06/25 08:20:00;;;;;;;14.05;12.05;;;23.80;99.90;;;;;;4860140;29;20502;-83
2023/06/25 08:22:25;;;;;;;13.68;12.07;;;23.80;99.90;;;;;;4859576;29;20033;-83
2023/06/25 08:24:51;;;;;;;13.65;11.68;;;23.80;99.90;;;;;;4859964;29;20045;-83
2023/06/25 08:27:16;;;;;;;14.48;12.00;;;23.70;99.90;;;;;;4860044;29;20026;-84
2023/06/25 08:29:42;;;;;;;14.35;11.88;;;23.80;99.90;;;;;;4859259;29;20026;-83
2023/06/25 08:32:08;;;;;;;9.27;8.38;;;23.80;99.90;;;;;;4860169;29;20364;-83
2023/06/25 08:34:34;;;;;;;13.35;9.00;;;23.90;99.90;;;;;;4860164;29;20037;-83
2023/06/25 08:36:59;;;;;;;9.90;8.25;;;23.80;99.90;;;;;;4858955;29;20026;-83
2023/06/25 08:39:25;;;;;;;10.68;9.68;;;23.90;99.90;;;;;;4860079;29;20045;-83
2023/06/25 08:41:50;;;;;;;9.18;8.23;;;23.90;99.90;;;;;;4859835;29;20100;-83
2023/06/25 08:44:16;;;;;;;13.32;9.40;;;23.90;99.90;;;;;;4859173;29;20555;-83
2023/06/25 08:46:49;;;;;;;8.65;7.85;;;24.40;99.90;;;;;;4860056;29;20112;-83
2023/06/25 08:49:16;;;;;;;8.93;7.82;;;24.00;99.90;;;;;;4860241;29;20033;-83
2023/06/25 08:51:42;;;;;;;9.75;8.07;;;23.90;99.90;;;;;;4859367;29;20021;-83
2023/06/25 08:54:08;;;;;;;11.65;8.52;;;23.80;99.90;;;;;;4859812;29;20036;-83
2023/06/25 08:56:34;;;;;;;9.48;7.93;;;23.90;99.90;;;;;;4859951;29;20053;-83
2023/06/25 08:59:00;;;;;;;9.45;7.88;;;24.00;99.90;;;;;;4859257;29;20083;-83
2023/06/25 09:01:27;;;;;;;7.68;6.60;;;24.10;99.90;;;;;;4860249;29;20026;-83
2023/06/25 09:03:53;;;;;;;9.48;7.25;;;24.10;99.90;;;;;;4859884;29;20034;-83
2023/06/25 09:06:19;;;;;;;10.25;6.55;;;24.10;99.50;;;;;;4859562;29;20193;-83
2023/06/25 09:08:45;;;;;;;6.80;6.15;;;24.20;98.40;;;;;;4859827;29;20034;-83
2023/06/25 09:11:11;;;;;;;8.20;7.38;;;24.20;98.70;;;;;;4859903;29;20025;-83
2023/06/25 09:13:38;;;;;;;8.13;7.28;;;24.30;98.90;;;;;;4859228;29;20042;-84
2023/06/25 09:16:07;;;;;;;9.95;7.40;;;24.40;98.40;;;;;;4860030;29;20373;-83
2023/06/25 09:18:32;;;;;;;7.82;6.07;;;24.30;98.60;;;;;;4859326;29;20555;-83
2023/06/25 09:21:05;;;;;;;7.65;6.85;;;24.40;99.30;;;;;;4859355;29;20041;-83
2023/06/25 09:23:31;;;;;;;8.02;7.20;;;24.60;98.80;;;;;;4859618;29;20045;-83
2023/06/25 09:25:57;;;;;;;8.95;6.68;;;24.60;98.00;;;;;;4859139;29;20393;-83
2023/06/25 09:28:22;;;;;;;12.32;7.53;;;24.60;98.30;;;;;;4860079;29;20452;-83
2023/06/25 09:30:48;;;;;;;7.18;6.47;;;24.80;98.20;;;;;;4863077;29;20045;-83
2023/06/25 09:33:15;;;;;;;8.52;7.32;;;24.80;98.20;;;;;;4862733;29;20072;-83
2023/06/25 09:35:41;;;;;;;6.80;6.13;;;24.60;98.20;;;;;;4863141;29;20372;-83
2023/06/25 09:38:07;;;;;;;8.10;7.30;;;24.60;98.40;;;;;;4862767;29;20117;-83
2023/06/25 09:40:32;;;;;;;18.40;16.60;;;24.70;98.30;;;;;;4862550;29;20045;-83
2023/06/25 09:43:00;;;;;;;9.77;8.80;;;25.30;98.40;;;;;;4862938;29;20029;-83
2023/06/25 09:45:26;;;;;;;9.82;7.68;;;24.80;98.40;;;;;;4863169;29;20032;-83
2023/06/25 09:47:54;;;;;;;9.88;7.63;;;24.80;98.30;;;;;;4861824;29;20033;-83
2023/06/25 09:50:23;;;;;;;8.55;7.25;;;24.80;98.10;;;;;;4863034;29;20037;-83
2023/06/25 09:53:02;;;;;;;7.82;6.90;;;24.80;98.10;;;;;;4862527;29;20021;-83
2023/06/25 09:55:29;;;;;;;8.55;7.18;;;24.80;98.10;;;;;;4862061;29;20416;-83
2023/06/25 09:57:55;;;;;;;7.90;7.13;;;24.90;98.20;;;;;;4862472;29;20032;-83
2023/06/25 10:00:23;;;;;;;8.00;6.88;;;25.00;98.30;;;;;;4862617;29;20046;-83
2023/06/25 10:02:49;;;;;;;9.75;6.53;;;24.90;98.10;;;;;;4861869;29;20026;-83
2023/06/25 10:05:15;;;;;;;7.60;6.88;;;24.80;98.20;;;;;;4862630;29;20041;-83
2023/06/25 10:07:42;;;;;;;6.60;6.00;;;24.80;97.90;;;;;;4862800;29;20034;-83
2023/06/25 10:10:22;;;;;;;8.00;6.75;;;24.80;98.50;;;;;;4861937;29;20030;-83
2023/06/25 10:12:51;;;;;;;7.78;6.30;;;24.80;98.60;;;;;;4862463;29;20026;-83
2023/06/25 10:15:34;;;;;;;7.15;6.20;;;24.90;98.30;;;;;;4861770;29;20128;-83
2023/06/25 10:18:02;;;;;;;8.55;7.78;;;24.90;97.90;;;;;;4862361;29;20040;-83
2023/06/25 10:20:36;;;;;;;7.40;5.80;;;25.00;98.30;;;;;;4862056;29;20042;-83
2023/06/25 10:23:12;;;;;;;10.60;6.00;;;24.80;99.00;;;;;;4861547;29;20121;-83
2023/06/25 10:25:51;;;;;;;7.05;6.45;;;24.80;99.20;;;;;;4862409;29;20111;-83
2023/06/25 10:28:16;;;;;;;6.28;5.65;;;24.80;98.80;;;;;;4862496;29;20026;-83
2023/06/25 10:30:49;;;;;;;6.90;6.22;;;24.80;99.20;;;;;;4861828;29;20034;-82
2023/06/25 10:33:18;;;;;;;5.80;5.30;;;24.90;98.50;;;;;;4862328;29;20100;-83
2023/06/25 10:35:47;;;;;;;5.90;5.38;;;25.00;98.60;;;;;;4862117;29;20056;-83
2023/06/25 10:38:13;;;;;;;7.53;5.13;;;25.10;98.60;;;;;;4861411;29;20053;-83
2023/06/25 10:40:40;;;;;;;7.22;5.03;;;25.10;98.20;;;;;;4861192;29;20134;-83
2023/06/25 10:43:06;;;;;;;13.48;5.75;;;25.00;98.90;;;;;;4861218;29;20026;-83
2023/06/25 10:45:33;;;;;;;5.93;5.45;;;25.10;98.50;;;;;;4861938;29;20044;-83
2023/06/25 10:48:10;;;;;;;6.03;5.30;;;25.10;98.50;;;;;;4861708;29;20049;-83
2023/06/25 10:50:36;;;;;;;10.30;4.53;;;25.20;97.80;;;;;;4860898;29;20414;-83
2023/06/25 10:53:03;;;;;;;12.18;6.38;;;25.30;97.50;;;;;;4861453;29;20032;-83
2023/06/25 10:55:29;;;;;;;5.30;4.60;;;25.30;98.50;;;;;;4861635;29;20490;-83
2023/06/25 10:57:55;;;;;;;5.32;4.93;;;25.40;97.70;;;;;;4861059;29;20029;-83
2023/06/25 11:00:25;;;;;;;5.10;4.70;;;25.40;97.90;;;;;;4861820;29;20097;-83
2023/06/25 11:02:57;;;;;;;8.07;4.55;;;25.40;97.90;;;;;;4861392;29;20032;-83
2023/06/25 11:05:34;;;;;;;5.20;4.75;;;25.40;98.10;;;;;;4860937;29;20189;-83
2023/06/25 11:07:59;;;;;;;4.22;3.78;;;25.40;97.70;;;;;;4861253;29;20061;-83
2023/06/25 11:10:25;;;;;;;4.32;4.03;;;25.40;96.90;;;;;;4861526;29;20109;-83
2023/06/25 11:12:51;;;;;;;4.88;4.38;;;25.30;97.70;;;;;;4860452;29;20098;-84
2023/06/25 11:15:17;;;;;;;5.15;3.97;;;25.40;97.90;;;;;;4861535;29;20037;-83
2023/06/25 11:17:50;;;;;;;3.80;3.50;;;25.50;97.80;;;;;;4861324;29;20386;-83
2023/06/25 11:20:15;;;;;;;6.55;4.45;;;25.60;96.60;;;;;;4860643;29;20041;-83
2023/06/25 11:22:44;;;;;;;4.93;3.90;;;25.70;95.90;;;;;;4861393;29;20030;-83
2023/06/25 11:25:14;;;;;;;4.30;4.00;;;25.90;95.80;;;;;;4860404;29;20053;-83
2023/06/25 11:27:40;;;;;;;7.83;4.53;;;25.80;96.50;;;;;;4861349;29;20109;-83
2023/06/25 11:30:09;;;;;;;4.20;3.90;;;25.70;96.10;;;;;;4860787;29;20759;-83
2023/06/25 11:32:37;;;;;;;4.32;3.92;;;25.80;96.90;;;;;;4860251;29;20443;-83
2023/06/25 11:35:13;;;;;;;5.20;3.78;;;25.80;96.80;;;;;;4861007;29;20101;-83
2023/06/25 11:37:44;;;;;;;4.05;3.75;;;25.80;96.60;;;;;;4861040;29;20029;-83
2023/06/25 11:40:21;;;;;;;4.68;4.28;;;25.80;96.10;;;;;;4860105;29;20048;-83
2023/06/25 11:42:47;;;;;;;5.47;4.25;;;26.00;95.50;;;;;;4860655;29;20054;-83
2023/06/25 11:45:12;;;;;;;4.22;3.83;;;26.10;96.40;;;;;;4860993;29;20353;-83
2023/06/25 11:47:53;;;;;;;4.80;4.40;;;26.00;96.30;;;;;;4860053;29;20467;-83
2023/06/25 11:50:21;;;;;;;4.45;4.03;;;26.10;96.90;;;;;;4860576;29;20029;-83
2023/06/25 11:52:47;;;;;;;5.32;3.92;;;26.00;97.10;;;;;;4859745;29;20034;-83
2023/06/25 11:55:13;;;;;;;4.78;4.38;;;26.00;96.90;;;;;;4860009;29;20033;-83
2023/06/25 11:57:40;;;;;;;4.60;4.20;;;26.00;96.30;;;;;;4860513;29;20395;-83
2023/06/25 12:00:06;;;;;;;4.85;4.50;;;26.00;96.80;;;;;;4860245;29;20116;-83
2023/06/25 12:02:32;;;;;;;4.80;4.47;;;26.00;96.40;;;;;;4860157;29;20049;-83
2023/06/25 12:04:57;;;;;;;5.32;4.53;;;26.10;96.20;;;;;;4860287;29;20490;-83
2023/06/25 12:07:23;;;;;;;6.40;4.22;;;26.20;96.70;;;;;;4859903;29;20057;-83
2023/06/25 12:09:49;;;;;;;4.97;4.47;;;26.20;96.80;;;;;;4860272;29;20109;-83
2023/06/25 12:12:14;;;;;;;4.85;4.45;;;26.30;96.80;;;;;;4860359;29;20029;-83
2023/06/25 12:14:40;;;;;;;5.18;4.70;;;26.30;96.20;;;;;;4859918;29;20037;-83
2023/06/25 12:17:06;;;;;;;5.13;4.72;;;26.30;96.70;;;;;;4860390;29;20109;-83
2023/06/25 12:19:31;;;;;;;4.68;4.25;;;26.30;96.80;;;;;;4860459;29;20030;-83
2023/06/25 12:21:58;;;;;;;4.30;3.92;;;26.30;96.30;;;;;;4859777;29;20596;-83
2023/06/25 12:24:24;;;;;;;4.57;4.18;;;26.30;96.50;;;;;;4860226;29;20082;-83
2023/06/25 12:26:50;;;;;;;5.72;4.30;;;26.20;96.70;;;;;;4859850;29;20064;-83
2023/06/25 12:29:15;;;;;;;7.22;4.25;;;26.40;97.20;;;;;;4859488;29;20033;-83